sensor_id;sensor_type;location;lat;lon;timestamp;pressure;altitude;pressure_sealevel;temperature;humidity
63090;BME280;49174;43.198;27.824;2023-04-24T03:50:07;101555.56;;;4.48;100.00
63090;BME280;49174;43.198;27.824;2023-04-24T03:58:38;101561.47;;;4.62;100.00
63090;BME280;49174;43.198;27.824;2023-04-24T04:01:03;101558.41;;;4.66;100.00
63090;BME280;49174;43.198;27.824;2023-04-24T04:03:29;101562.50;;;4.80;100.00
63090;BME280;49174;43.198;27.824;2023-04-24T04:05:54;101563.91;;;4.84;100.00
63090;BME280;49174;43.198;27.824;2023-04-24T04:08:20;101565.19;;;4.90;100.00
63090;BME280;49174;43.198;27.824;2023-04-24T04:10:46;101569.00;;;4.97;100.00
63090;BME280;49174;43.198;27.824;2023-04-24T04:13:11;101568.31;;;5.05;100.00
63090;BME280;49174;43.198;27.824;2023-04-24T04:15:36;101566.72;;;5.12;100.00
63090;BME280;49174;43.198;27.824;2023-04-24T04:18:02;101562.66;;;5.18;100.00
63090;BME280;49174;43.198;27.824;2023-04-24T04:20:27;101567.72;;;5.30;100.00
63090;BME280;49174;43.198;27.824;2023-04-24T04:22:53;101563.75;;;5.44;100.00
63090;BME280;49174;43.198;27.824;2023-04-24T04:25:18;101560.63;;;5.49;100.00
63090;BME280;49174;43.198;27.824;2023-04-24T04:27:46;101570.50;;;5.58;100.00
63090;BME280;49174;43.198;27.824;2023-04-24T04:30:13;101561.47;;;5.69;100.00
63090;BME280;49174;43.198;27.824;2023-04-24T04:32:39;101569.03;;;5.73;100.00
63090;BME280;49174;43.198;27.824;2023-04-24T04:35:04;101555.53;;;5.75;100.00
63090;BME280;49174;43.198;27.824;2023-04-24T04:37:33;101560.16;;;5.82;100.00
63090;BME280;49174;43.198;27.824;2023-04-24T04:39:59;101565.47;;;5.92;100.00
63090;BME280;49174;43.198;27.824;2023-04-24T04:45:07;101574.00;;;6.15;100.00
63090;BME280;49174;43.198;27.824;2023-04-24T04:47:37;101557.59;;;6.28;100.00
63090;BME280;49174;43.198;27.824;2023-04-24T04:50:03;101557.09;;;6.42;100.00
63090;BME280;49174;43.198;27.824;2023-04-24T04:52:29;101567.31;;;6.57;100.00
63090;BME280;49174;43.198;27.824;2023-04-24T04:54:55;101560.19;;;6.65;100.00
63090;BME280;49174;43.198;27.824;2023-04-24T04:57:21;101568.31;;;6.74;100.00
63090;BME280;49174;43.198;27.824;2023-04-24T04:59:47;101563.75;;;6.84;100.00
63090;BME280;49174;43.198;27.824;2023-04-24T05:02:13;101565.06;;;6.98;100.00
63090;BME280;49174;43.198;27.824;2023-04-24T05:04:38;101560.16;;;7.11;100.00
63090;BME280;49174;43.198;27.824;2023-04-24T05:07:04;101568.09;;;7.21;100.00
63090;BME280;49174;43.198;27.824;2023-04-24T05:09:29;101557.06;;;7.24;100.00
63090;BME280;49174;43.198;27.824;2023-04-24T05:11:55;101566.66;;;7.26;100.00
63090;BME280;49174;43.198;27.824;2023-04-24T05:14:21;101560.94;;;7.47;100.00
63090;BME280;49174;43.198;27.824;2023-04-24T05:16:47;101563.69;;;7.55;100.00
63090;BME280;49174;43.198;27.824;2023-04-24T05:19:13;101554.00;;;7.63;100.00
63090;BME280;49174;43.198;27.824;2023-04-24T05:21:39;101553.06;;;7.72;100.00
63090;BME280;49174;43.198;27.824;2023-04-24T05:24:06;101554.78;;;7.81;100.00
63090;BME280;49174;43.198;27.824;2023-04-24T05:26:32;101554.84;;;7.89;100.00
63090;BME280;49174;43.198;27.824;2023-04-24T05:28:57;101550.53;;;8.04;100.00
63090;BME280;49174;43.198;27.824;2023-04-24T05:31:23;101543.91;;;8.17;100.00
63090;BME280;49174;43.198;27.824;2023-04-24T05:33:48;101544.94;;;8.32;100.00
63090;BME280;49174;43.198;27.824;2023-04-24T05:36:14;101542.84;;;8.44;100.00
63090;BME280;49174;43.198;27.824;2023-04-24T05:38:40;101542.22;;;8.58;100.00
63090;BME280;49174;43.198;27.824;2023-04-24T05:41:05;101543.25;;;8.73;100.00
63090;BME280;49174;43.198;27.824;2023-04-24T05:43:31;101538.06;;;8.88;100.00
63090;BME280;49174;43.198;27.824;2023-04-24T05:45:56;101542.28;;;8.99;100.00
63090;BME280;49174;43.198;27.824;2023-04-24T05:48:22;101539.78;;;9.14;100.00
63090;BME280;49174;43.198;27.824;2023-04-24T05:50:48;101542.78;;;9.27;100.00
63090;BME280;49174;43.198;27.824;2023-04-24T05:53:13;101541.78;;;9.45;100.00
63090;BME280;49174;43.198;27.824;2023-04-24T05:55:39;101537.38;;;9.68;100.00
63090;BME280;49174;43.198;27.824;2023-04-24T05:58:04;101539.31;;;9.99;100.00
63090;BME280;49174;43.198;27.824;2023-04-24T06:00:30;101540.91;;;10.16;100.00
63090;BME280;49174;43.198;27.824;2023-04-24T06:02:56;101537.31;;;10.40;100.00
63090;BME280;49174;43.198;27.824;2023-04-24T06:05:21;101549.97;;;10.71;100.00
63090;BME280;49174;43.198;27.824;2023-04-24T06:18:41;101532.69;;;11.79;97.36
63090;BME280;49174;43.198;27.824;2023-04-24T06:21:08;101530.09;;;12.00;95.17
63090;BME280;49174;43.198;27.824;2023-04-24T06:23:34;101531.22;;;12.21;96.11
63090;BME280;49174;43.198;27.824;2023-04-24T06:25:59;101523.63;;;12.46;95.02
63090;BME280;49174;43.198;27.824;2023-04-24T06:28:26;101523.06;;;12.72;91.56
63090;BME280;49174;43.198;27.824;2023-04-24T06:30:51;101528.94;;;12.97;91.05
63090;BME280;49174;43.198;27.824;2023-04-24T06:33:17;101524.38;;;13.19;87.89
63090;BME280;49174;43.198;27.824;2023-04-24T06:35:42;101529.59;;;13.42;87.23
63090;BME280;49174;43.198;27.824;2023-04-24T06:38:08;101527.66;;;13.64;85.35
63090;BME280;49174;43.198;27.824;2023-04-24T06:40:33;101521.13;;;13.86;82.86
63090;BME280;49174;43.198;27.824;2023-04-24T06:42:59;101530.19;;;14.00;78.86
63090;BME280;49174;43.198;27.824;2023-04-24T06:45:26;101528.38;;;14.14;79.60
63090;BME280;49174;43.198;27.824;2023-04-24T06:47:51;101533.50;;;14.37;80.66
63090;BME280;49174;43.198;27.824;2023-04-24T06:50:17;101529.44;;;14.61;78.39
63090;BME280;49174;43.198;27.824;2023-04-24T06:52:42;101523.84;;;14.83;75.71
63090;BME280;49174;43.198;27.824;2023-04-24T06:55:08;101533.28;;;15.00;74.20
63090;BME280;49174;43.198;27.824;2023-04-24T06:57:34;101519.31;;;15.16;73.77
63090;BME280;49174;43.198;27.824;2023-04-24T06:59:59;101518.25;;;15.37;73.52
63090;BME280;49174;43.198;27.824;2023-04-24T07:02:25;101527.06;;;15.46;71.58
63090;BME280;49174;43.198;27.824;2023-04-24T07:04:50;101527.03;;;15.66;71.22
63090;BME280;49174;43.198;27.824;2023-04-24T07:07:16;101525.31;;;15.85;71.23
63090;BME280;49174;43.198;27.824;2023-04-24T07:09:42;101523.59;;;16.04;71.77
63090;BME280;49174;43.198;27.824;2023-04-24T07:12:08;101519.78;;;16.25;71.65
63090;BME280;49174;43.198;27.824;2023-04-24T07:14:36;101522.69;;;16.30;70.35
63090;BME280;49174;43.198;27.824;2023-04-24T07:17:03;101523.88;;;16.41;67.89
63090;BME280;49174;43.198;27.824;2023-04-24T07:19:28;101515.78;;;16.66;67.75
63090;BME280;49174;43.198;27.824;2023-04-24T07:21:54;101515.31;;;16.82;69.23
63090;BME280;49174;43.198;27.824;2023-04-24T07:24:20;101522.25;;;17.10;55.29
63090;BME280;49174;43.198;27.824;2023-04-24T07:26:46;101517.50;;;17.30;54.96
63090;BME280;49174;43.198;27.824;2023-04-24T07:29:12;101511.75;;;17.13;61.29
63090;BME280;49174;43.198;27.824;2023-04-24T07:31:38;101516.88;;;17.28;61.79
63090;BME280;49174;43.198;27.824;2023-04-24T07:36:48;101516.19;;;17.58;53.83
63090;BME280;49174;43.198;27.824;2023-04-24T07:39:14;101518.75;;;17.53;60.21
63090;BME280;49174;43.198;27.824;2023-04-24T07:41:40;101509.53;;;17.29;59.59
63090;BME280;49174;43.198;27.824;2023-04-24T07:44:06;101517.97;;;17.46;62.42
63090;BME280;49174;43.198;27.824;2023-04-24T07:46:31;101515.41;;;17.51;60.57
63090;BME280;49174;43.198;27.824;2023-04-24T07:48:58;101515.97;;;17.59;55.74
63090;BME280;49174;43.198;27.824;2023-04-24T07:51:26;101519.66;;;17.90;59.15
63090;BME280;49174;43.198;27.824;2023-04-24T07:53:56;101524.84;;;17.98;61.33
63090;BME280;49174;43.198;27.824;2023-04-24T07:56:22;101524.97;;;17.60;52.07
63090;BME280;49174;43.198;27.824;2023-04-24T07:58:47;101523.84;;;17.68;61.03
63090;BME280;49174;43.198;27.824;2023-04-24T08:01:13;101522.69;;;17.57;62.24
63090;BME280;49174;43.198;27.824;2023-04-24T08:03:38;101522.03;;;17.86;62.59
63090;BME280;49174;43.198;27.824;2023-04-24T08:06:04;101524.75;;;18.05;62.10
63090;BME280;49174;43.198;27.824;2023-04-24T08:08:29;101522.31;;;18.15;59.19
63090;BME280;49174;43.198;27.824;2023-04-24T08:10:55;101527.41;;;17.68;61.52
63090;BME280;49174;43.198;27.824;2023-04-24T08:13:21;101523.84;;;17.68;59.48
63090;BME280;49174;43.198;27.824;2023-04-24T08:15:47;101527.97;;;17.77;57.97
63090;BME280;49174;43.198;27.824;2023-04-24T08:18:13;101517.84;;;18.02;52.99
63090;BME280;49174;43.198;27.824;2023-04-24T08:23:20;101517.88;;;17.77;49.27
63090;BME280;49174;43.198;27.824;2023-04-24T08:25:46;101510.44;;;17.66;48.73
63090;BME280;49174;43.198;27.824;2023-04-24T08:28:11;101505.41;;;17.88;48.22
63090;BME280;49174;43.198;27.824;2023-04-24T08:30:37;101504.75;;;18.11;47.77
63090;BME280;49174;43.198;27.824;2023-04-24T08:33:03;101508.34;;;18.42;47.28
63090;BME280;49174;43.198;27.824;2023-04-24T08:35:29;101507.34;;;18.66;46.58
63090;BME280;49174;43.198;27.824;2023-04-24T08:37:54;101506.50;;;18.84;46.08
63090;BME280;49174;43.198;27.824;2023-04-24T08:40:26;101498.56;;;18.64;45.44
63090;BME280;49174;43.198;27.824;2023-04-24T08:42:54;101498.28;;;18.54;43.88
63090;BME280;49174;43.198;27.824;2023-04-24T08:45:23;101485.31;;;18.49;44.97
63090;BME280;49174;43.198;27.824;2023-04-24T08:47:50;101492.78;;;18.42;48.37
63090;BME280;49174;43.198;27.824;2023-04-24T08:50:17;101492.22;;;18.52;46.43
63090;BME280;49174;43.198;27.824;2023-04-24T08:52:42;101494.72;;;18.53;46.42
63090;BME280;49174;43.198;27.824;2023-04-24T08:55:08;101489.16;;;18.60;46.21
63090;BME280;49174;43.198;27.824;2023-04-24T08:57:34;101488.34;;;18.90;47.45
63090;BME280;49174;43.198;27.824;2023-04-24T09:00:01;101477.28;;;18.96;48.81
63090;BME280;49174;43.198;27.824;2023-04-24T09:02:27;101477.69;;;19.12;46.67
63090;BME280;49174;43.198;27.824;2023-04-24T09:04:53;101481.25;;;19.24;46.44
63090;BME280;49174;43.198;27.824;2023-04-24T09:07:19;101477.78;;;19.05;46.93
63090;BME280;49174;43.198;27.824;2023-04-24T09:09:48;101479.69;;;19.16;46.42
63090;BME280;49174;43.198;27.824;2023-04-24T09:12:15;101479.59;;;19.11;45.96
63090;BME280;49174;43.198;27.824;2023-04-24T09:14:41;101472.78;;;19.02;45.81
63090;BME280;49174;43.198;27.824;2023-04-24T09:17:10;101472.22;;;19.00;47.36
63090;BME280;49174;43.198;27.824;2023-04-24T09:19:36;101474.66;;;18.90;47.74
63090;BME280;49174;43.198;27.824;2023-04-24T09:22:05;101477.16;;;18.91;45.00
63090;BME280;49174;43.198;27.824;2023-04-24T09:24:31;101469.69;;;18.98;44.76
63090;BME280;49174;43.198;27.824;2023-04-24T09:26:58;101479.13;;;19.14;46.12
63090;BME280;49174;43.198;27.824;2023-04-24T09:29:32;101471.34;;;19.00;46.19
63090;BME280;49174;43.198;27.824;2023-04-24T09:31:59;101473.88;;;19.25;48.22
63090;BME280;49174;43.198;27.824;2023-04-24T09:34:27;101474.56;;;19.08;44.23
63090;BME280;49174;43.198;27.824;2023-04-24T09:36:53;101475.63;;;18.95;45.56
63090;BME280;49174;43.198;27.824;2023-04-24T09:39:19;101476.13;;;18.44;45.90
63090;BME280;49174;43.198;27.824;2023-04-24T09:41:50;101469.81;;;18.31;46.74
63090;BME280;49174;43.198;27.824;2023-04-24T09:49:39;101453.63;;;18.90;46.33
63090;BME280;49174;43.198;27.824;2023-04-24T09:54:55;101457.16;;;18.79;44.09
63090;BME280;49174;43.198;27.824;2023-04-24T09:57:21;101451.47;;;18.81;45.10
63090;BME280;49174;43.198;27.824;2023-04-24T09:59:47;101446.84;;;18.93;44.51
63090;BME280;49174;43.198;27.824;2023-04-24T10:02:19;101450.53;;;18.98;46.02
63090;BME280;49174;43.198;27.824;2023-04-24T10:04:56;101452.09;;;18.94;45.37
63090;BME280;49174;43.198;27.824;2023-04-24T10:07:25;101453.63;;;19.02;45.04
63090;BME280;49174;43.198;27.824;2023-04-24T10:09:51;101454.16;;;19.23;46.68
63090;BME280;49174;43.198;27.824;2023-04-24T10:12:17;101439.88;;;19.56;44.96
63090;BME280;49174;43.198;27.824;2023-04-24T10:14:45;101440.56;;;19.51;44.45
63090;BME280;49174;43.198;27.824;2023-04-24T10:17:11;101442.84;;;19.42;44.03
63090;BME280;49174;43.198;27.824;2023-04-24T10:19:38;101445.69;;;19.24;44.60
63090;BME280;49174;43.198;27.824;2023-04-24T10:22:06;101449.84;;;19.15;43.83
63090;BME280;49174;43.198;27.824;2023-04-24T10:24:33;101450.22;;;19.18;44.86
63090;BME280;49174;43.198;27.824;2023-04-24T10:26:59;101432.75;;;19.31;43.69
63090;BME280;49174;43.198;27.824;2023-04-24T10:29:29;101450.69;;;19.27;42.88
63090;BME280;49174;43.198;27.824;2023-04-24T10:31:56;101445.00;;;19.17;42.50
63090;BME280;49174;43.198;27.824;2023-04-24T10:34:22;101430.09;;;19.48;41.90
63090;BME280;49174;43.198;27.824;2023-04-24T10:36:51;101433.91;;;19.24;41.96
63090;BME280;49174;43.198;27.824;2023-04-24T10:39:18;101435.22;;;19.21;41.10
63090;BME280;49174;43.198;27.824;2023-04-24T10:41:44;101437.13;;;19.32;40.07
63090;BME280;49174;43.198;27.824;2023-04-24T10:44:15;101434.63;;;19.54;37.89
63090;BME280;49174;43.198;27.824;2023-04-24T10:46:45;101432.75;;;19.31;38.35
63090;BME280;49174;43.198;27.824;2023-04-24T10:49:12;101436.03;;;18.98;38.19
63090;BME280;49174;43.198;27.824;2023-04-24T10:51:52;101435.47;;;18.66;38.90
63090;BME280;49174;43.198;27.824;2023-04-24T10:54:29;101436.53;;;18.65;39.35
63090;BME280;49174;43.198;27.824;2023-04-24T10:59:50;101433.06;;;18.88;45.24
63090;BME280;49174;43.198;27.824;2023-04-24T11:02:18;101423.69;;;19.07;37.75
63090;BME280;49174;43.198;27.824;2023-04-24T11:05:03;101418.34;;;19.12;39.18
63090;BME280;49174;43.198;27.824;2023-04-24T11:07:29;101421.63;;;18.91;39.40
63090;BME280;49174;43.198;27.824;2023-04-24T11:10:00;101413.25;;;18.62;40.84
63090;BME280;49174;43.198;27.824;2023-04-24T11:12:26;101416.25;;;18.72;40.16
63090;BME280;49174;43.198;27.824;2023-04-24T11:15:02;101411.66;;;18.85;40.63
63090;BME280;49174;43.198;27.824;2023-04-24T11:17:36;101409.19;;;18.95;39.80
63090;BME280;49174;43.198;27.824;2023-04-24T11:20:07;101412.44;;;18.73;41.61
63090;BME280;49174;43.198;27.824;2023-04-24T11:22:39;101419.16;;;19.13;42.91
63090;BME280;49174;43.198;27.824;2023-04-24T11:25:09;101417.47;;;18.77;42.52
63090;BME280;49174;43.198;27.824;2023-04-24T11:30:08;101409.66;;;19.39;42.49
63090;BME280;49174;43.198;27.824;2023-04-24T11:35:03;101410.72;;;18.61;44.17
63090;BME280;49174;43.198;27.824;2023-04-24T11:37:34;101412.16;;;18.63;45.74
63090;BME280;49174;43.198;27.824;2023-04-24T11:40:00;101418.38;;;18.28;45.38
63090;BME280;49174;43.198;27.824;2023-04-24T11:42:27;101414.81;;;18.28;45.55
63090;BME280;49174;43.198;27.824;2023-04-24T11:44:54;101414.69;;;18.35;45.70
63090;BME280;49174;43.198;27.824;2023-04-24T11:47:31;101411.69;;;18.24;46.91
63090;BME280;49174;43.198;27.824;2023-04-24T11:50:00;101418.56;;;18.57;44.14
63090;BME280;49174;43.198;27.824;2023-04-24T11:52:27;101413.22;;;18.50;44.22
63090;BME280;49174;43.198;27.824;2023-04-24T11:54:52;101408.50;;;18.27;46.25
63090;BME280;49174;43.198;27.824;2023-04-24T11:57:25;101409.00;;;18.06;45.33
63090;BME280;49174;43.198;27.824;2023-04-24T11:59:54;101412.63;;;18.18;45.52
63090;BME280;49174;43.198;27.824;2023-04-24T12:02:23;101400.06;;;18.29;45.62
63090;BME280;49174;43.198;27.824;2023-04-24T12:04:49;101397.44;;;18.22;45.90
63090;BME280;49174;43.198;27.824;2023-04-24T12:07:15;101395.19;;;18.19;47.52
63090;BME280;49174;43.198;27.824;2023-04-24T12:09:45;101389.97;;;18.29;44.18
63090;BME280;49174;43.198;27.824;2023-04-24T12:12:12;101381.38;;;18.44;45.03
63090;BME280;49174;43.198;27.824;2023-04-24T12:14:47;101381.91;;;18.35;44.30
63090;BME280;49174;43.198;27.824;2023-04-24T12:17:13;101383.13;;;18.39;43.68
63090;BME280;49174;43.198;27.824;2023-04-24T12:19:45;101382.44;;;18.13;43.34
63090;BME280;49174;43.198;27.824;2023-04-24T12:22:11;101389.84;;;18.24;43.50
63090;BME280;49174;43.198;27.824;2023-04-24T12:24:55;101384.13;;;18.56;44.08
63090;BME280;49174;43.198;27.824;2023-04-24T12:27:22;101373.72;;;18.35;43.29
63090;BME280;49174;43.198;27.824;2023-04-24T12:29:55;101370.53;;;18.07;44.07
63090;BME280;49174;43.198;27.824;2023-04-24T12:32:21;101381.88;;;18.23;44.07
63090;BME280;49174;43.198;27.824;2023-04-24T12:34:49;101374.00;;;17.84;44.07
63090;BME280;49174;43.198;27.824;2023-04-24T12:37:15;101372.47;;;17.70;44.09
63090;BME280;49174;43.198;27.824;2023-04-24T12:39:57;101367.16;;;17.94;43.86
63090;BME280;49174;43.198;27.824;2023-04-24T12:42:28;101371.09;;;17.98;45.02
63090;BME280;49174;43.198;27.824;2023-04-24T12:45:05;101368.13;;;18.29;45.38
63090;BME280;49174;43.198;27.824;2023-04-24T12:47:32;101363.59;;;18.23;45.59
63090;BME280;49174;43.198;27.824;2023-04-24T12:49:57;101364.34;;;18.30;46.06
63090;BME280;49174;43.198;27.824;2023-04-24T12:52:24;101369.00;;;18.42;45.17
63090;BME280;49174;43.198;27.824;2023-04-24T12:54:53;101360.56;;;18.55;47.12
63090;BME280;49174;43.198;27.824;2023-04-24T12:57:20;101362.69;;;18.41;47.95
63090;BME280;49174;43.198;27.824;2023-04-24T12:59:46;101356.94;;;18.19;47.49
63090;BME280;49174;43.198;27.824;2023-04-24T13:02:12;101355.88;;;18.20;46.64
63090;BME280;49174;43.198;27.824;2023-04-24T13:04:38;101360.25;;;17.91;47.69
63090;BME280;49174;43.198;27.824;2023-04-24T13:07:05;101350.84;;;17.69;47.85
63090;BME280;49174;43.198;27.824;2023-04-24T13:09:30;101351.63;;;17.76;49.93
63090;BME280;49174;43.198;27.824;2023-04-24T13:11:56;101344.34;;;17.88;48.50
63090;BME280;49174;43.198;27.824;2023-04-24T13:14:22;101348.22;;;17.62;48.50
63090;BME280;49174;43.198;27.824;2023-04-24T13:16:48;101342.56;;;17.45;49.88
63090;BME280;49174;43.198;27.824;2023-04-24T13:19:14;101343.22;;;17.59;51.34
63090;BME280;49174;43.198;27.824;2023-04-24T13:21:40;101336.03;;;17.46;53.49
63090;BME280;49174;43.198;27.824;2023-04-24T13:24:06;101333.81;;;17.18;52.18
63090;BME280;49174;43.198;27.824;2023-04-24T13:26:33;101335.81;;;17.11;51.02
63090;BME280;49174;43.198;27.824;2023-04-24T13:28:58;101331.88;;;16.82;50.68
63090;BME280;49174;43.198;27.824;2023-04-24T13:31:24;101329.03;;;16.70;52.45
63090;BME280;49174;43.198;27.824;2023-04-24T13:33:49;101330.78;;;16.89;53.36
63090;BME280;49174;43.198;27.824;2023-04-24T13:36:15;101336.03;;;17.28;53.56
63090;BME280;49174;43.198;27.824;2023-04-24T13:38:43;101330.03;;;17.56;52.57
63090;BME280;49174;43.198;27.824;2023-04-24T13:41:09;101323.50;;;17.57;50.88
63090;BME280;49174;43.198;27.824;2023-04-24T13:43:35;101330.34;;;17.29;50.43
63090;BME280;49174;43.198;27.824;2023-04-24T13:46:01;101318.53;;;17.17;50.24
63090;BME280;49174;43.198;27.824;2023-04-24T13:48:29;101321.69;;;16.95;52.16
63090;BME280;49174;43.198;27.824;2023-04-24T13:50:55;101310.16;;;16.68;51.50
63090;BME280;49174;43.198;27.824;2023-04-24T13:53:21;101314.59;;;16.44;52.90
63090;BME280;49174;43.198;27.824;2023-04-24T13:55:46;101304.97;;;16.10;53.43
63090;BME280;49174;43.198;27.824;2023-04-24T13:58:12;101306.84;;;15.78;54.23
63090;BME280;49174;43.198;27.824;2023-04-24T14:00:37;101306.31;;;15.56;54.38
63090;BME280;49174;43.198;27.824;2023-04-24T14:03:03;101309.72;;;15.31;54.57
63090;BME280;49174;43.198;27.824;2023-04-24T14:05:29;101307.09;;;15.11;56.06
63090;BME280;49174;43.198;27.824;2023-04-24T14:07:54;101314.38;;;15.24;58.09
63090;BME280;49174;43.198;27.824;2023-04-24T14:10:20;101305.19;;;15.18;57.71
63090;BME280;49174;43.198;27.824;2023-04-24T14:12:46;101307.47;;;15.15;58.22
63090;BME280;49174;43.198;27.824;2023-04-24T14:15:11;101311.63;;;15.31;58.48
63090;BME280;49174;43.198;27.824;2023-04-24T14:17:38;101309.53;;;15.33;58.00
63090;BME280;49174;43.198;27.824;2023-04-24T14:20:05;101303.44;;;15.44;58.84
63090;BME280;49174;43.198;27.824;2023-04-24T14:22:32;101298.53;;;15.66;59.05
63090;BME280;49174;43.198;27.824;2023-04-24T14:24:58;101304.84;;;15.98;59.56
63090;BME280;49174;43.198;27.824;2023-04-24T14:27:24;101307.56;;;15.98;59.89
63090;BME280;49174;43.198;27.824;2023-04-24T14:29:50;101316.66;;;15.79;59.00
63090;BME280;49174;43.198;27.824;2023-04-24T14:32:16;101319.03;;;15.69;60.28
63090;BME280;49174;43.198;27.824;2023-04-24T14:34:41;101310.97;;;15.94;60.26
63090;BME280;49174;43.198;27.824;2023-04-24T14:37:07;101314.78;;;15.79;60.22
63090;BME280;49174;43.198;27.824;2023-04-24T14:39:33;101305.91;;;15.97;62.08
63090;BME280;49174;43.198;27.824;2023-04-24T14:41:58;101305.56;;;16.19;60.58
63090;BME280;49174;43.198;27.824;2023-04-24T14:44:24;101305.16;;;16.15;64.58
63090;BME280;49174;43.198;27.824;2023-04-24T14:46:50;101304.13;;;16.16;67.23
63090;BME280;49174;43.198;27.824;2023-04-24T14:49:15;101296.97;;;16.15;68.57
63090;BME280;49174;43.198;27.824;2023-04-24T14:51:41;101297.66;;;16.11;69.38
63090;BME280;49174;43.198;27.824;2023-04-24T14:54:07;101298.66;;;16.16;67.56
63090;BME280;49174;43.198;27.824;2023-04-24T14:56:34;101294.13;;;16.03;67.97
63090;BME280;49174;43.198;27.824;2023-04-24T14:58:59;101295.19;;;16.02;69.60
63090;BME280;49174;43.198;27.824;2023-04-24T15:01:25;101294.94;;;16.11;69.92
63090;BME280;49174;43.198;27.824;2023-04-24T15:03:50;101300.78;;;16.14;69.79
63090;BME280;49174;43.198;27.824;2023-04-24T15:06:16;101302.03;;;16.12;68.70
63090;BME280;49174;43.198;27.824;2023-04-24T15:08:41;101306.91;;;15.71;71.91
63090;BME280;49174;43.198;27.824;2023-04-24T15:11:09;101303.00;;;15.47;73.31
63090;BME280;49174;43.198;27.824;2023-04-24T15:13:35;101310.56;;;15.38;71.59
63090;BME280;49174;43.198;27.824;2023-04-24T15:16:00;101312.13;;;15.01;74.67
63090;BME280;49174;43.198;27.824;2023-04-24T15:18:27;101307.03;;;15.31;73.74
63090;BME280;49174;43.198;27.824;2023-04-24T15:20:54;101303.50;;;15.24;71.57
63090;BME280;49174;43.198;27.824;2023-04-24T15:53:21;101272.25;;;14.62;74.95
63090;BME280;49174;43.198;27.824;2023-04-24T16:36:45;101244.50;;;14.13;76.95
63090;BME280;49174;43.198;27.824;2023-04-24T16:39:11;101243.66;;;14.13;77.26
63090;BME280;49174;43.198;27.824;2023-04-24T16:41:38;101244.28;;;14.15;77.37
63090;BME280;49174;43.198;27.824;2023-04-24T16:46:45;101239.06;;;14.00;78.01
63090;BME280;49174;43.198;27.824;2023-04-24T16:49:11;101236.31;;;13.86;79.33
63090;BME280;49174;43.198;27.824;2023-04-24T16:51:36;101239.59;;;13.62;79.88
63090;BME280;49174;43.198;27.824;2023-04-24T16:54:02;101241.88;;;13.52;80.57
63090;BME280;49174;43.198;27.824;2023-04-24T16:59:09;101231.00;;;13.38;81.87
63090;BME280;49174;43.198;27.824;2023-04-24T17:01:35;101229.25;;;13.24;82.98
63090;BME280;49174;43.198;27.824;2023-04-24T17:04:02;101240.03;;;13.17;84.39
63090;BME280;49174;43.198;27.824;2023-04-24T17:06:27;101246.53;;;13.23;84.55
63090;BME280;49174;43.198;27.824;2023-04-24T17:08:53;101251.00;;;13.37;84.38
